createdAt,value
2019-03-09T10:52:10.981Z,10.40
2019-03-09T10:54:39.538Z,9.03
2019-03-09T10:57:08.104Z,11.05
2019-03-09T10:59:36.655Z,7.83
2019-03-09T11:02:05.261Z,8.15
2019-03-09T11:04:33.543Z,9.30
2019-03-09T11:07:01.771Z,10.38
2019-03-09T11:09:30.000Z,10.98
2019-03-09T11:12:01.088Z,12.43
2019-03-09T11:14:29.939Z,12.37
2019-03-09T11:16:59.749Z,12.20
2019-03-09T11:19:29.977Z,13.53
2019-03-09T11:21:58.467Z,14.58
2019-03-09T11:24:26.889Z,16.62
2019-03-09T11:26:55.697Z,15.10
2019-03-09T11:29:24.223Z,15.35
2019-03-09T11:31:52.942Z,14.47
2019-03-09T11:34:21.493Z,14.13
2019-03-09T11:36:50.001Z,13.88
2019-03-09T11:39:18.529Z,13.88
2019-03-09T11:41:47.922Z,14.87
2019-03-09T11:44:17.029Z,15.72
2019-03-09T11:46:45.530Z,15.48
2019-03-09T11:49:14.035Z,14.97
2019-03-09T11:51:42.590Z,14.40
2019-03-09T11:54:11.078Z,13.55
2019-03-09T11:56:39.906Z,13.28
2019-03-09T11:59:08.990Z,13.80
2019-03-09T12:01:37.703Z,15.20
2019-03-09T12:04:06.262Z,13.15
2019-03-09T12:06:35.095Z,9.50
2019-03-09T12:09:05.197Z,10.53
2019-03-09T12:11:33.435Z,12.28
2019-03-09T12:14:02.874Z,9.08
2019-03-09T12:16:31.486Z,8.08
2019-03-09T12:19:00.018Z,7.80
2019-03-09T12:21:28.653Z,7.65
2019-03-09T12:23:57.554Z,9.53
2019-03-09T12:26:26.178Z,6.60
2019-03-09T12:28:54.790Z,8.03
2019-03-09T12:31:23.432Z,7.40
2019-03-09T12:33:51.954Z,7.42
2019-03-09T12:36:20.564Z,6.65
2019-03-09T12:38:49.078Z,10.58
2019-03-09T12:41:17.729Z,10.45
2019-03-09T12:43:46.398Z,8.33
2019-03-09T12:46:15.010Z,7.80
2019-03-09T12:48:43.886Z,7.95
2019-03-09T12:51:12.457Z,9.23
2019-03-09T12:53:41.278Z,6.37
2019-03-09T12:56:10.497Z,7.94
2019-03-09T12:58:39.264Z,7.70
2019-03-09T13:01:07.850Z,9.00
2019-03-09T13:03:36.808Z,7.85
2019-03-09T13:06:05.761Z,7.20
2019-03-09T13:08:34.501Z,6.78
2019-03-09T13:11:03.082Z,6.45
2019-03-09T13:13:31.781Z,5.62
2019-03-09T13:16:00.393Z,5.78
2019-03-09T13:18:29.165Z,7.28
2019-03-09T13:20:57.645Z,6.47
2019-03-09T13:23:26.233Z,7.37
2019-03-09T13:25:54.722Z,6.75
2019-03-09T13:28:23.698Z,6.60
2019-03-09T13:30:52.221Z,5.33
2019-03-09T13:33:20.782Z,5.60
2019-03-09T13:35:49.413Z,5.20
2019-03-09T13:38:17.993Z,5.58
2019-03-09T13:40:46.652Z,6.15
2019-03-09T13:44:18.050Z,4.28
2019-03-09T13:46:46.836Z,4.00
2019-03-09T13:50:18.361Z,4.90
2019-03-09T13:52:46.953Z,6.10
2019-03-09T13:55:15.421Z,6.00
2019-03-09T13:57:44.277Z,4.25
2019-03-09T14:00:13.980Z,4.93
2019-03-09T14:02:42.468Z,5.75
2019-03-09T14:05:11.125Z,4.44
2019-03-09T14:07:40.536Z,4.83
2019-03-09T14:10:10.148Z,4.12
2019-03-09T14:12:38.732Z,5.87
2019-03-09T14:15:09.125Z,4.45
2019-03-09T14:17:37.789Z,4.80
2019-03-09T14:20:06.952Z,5.17
2019-03-09T14:22:35.893Z,4.97
2019-03-09T14:25:05.269Z,3.98
2019-03-09T14:27:33.917Z,4.22
2019-03-09T14:30:02.421Z,3.52
2019-03-09T14:32:30.959Z,3.05
2019-03-09T14:38:56.292Z,2.58
2019-03-09T14:41:25.848Z,2.70
2019-03-09T14:43:54.652Z,3.08
2019-03-09T14:46:24.578Z,3.10
2019-03-09T14:48:53.600Z,3.10
2019-03-09T14:51:22.384Z,3.65
2019-03-09T14:53:51.197Z,2.67
2019-03-09T14:56:20.008Z,2.85
2019-03-09T14:58:48.680Z,2.12
2019-03-09T15:01:17.352Z,2.02
2019-03-09T15:03:45.856Z,2.17
2019-03-09T15:06:14.380Z,2.15
2019-03-09T15:08:42.904Z,2.70
2019-03-09T15:11:11.444Z,3.33
2019-03-09T15:13:40.367Z,2.02
2019-03-09T15:16:09.923Z,2.33
2019-03-09T15:18:39.079Z,2.08
2019-03-09T15:21:08.636Z,2.33
2019-03-09T15:23:37.336Z,2.00
2019-03-09T15:26:06.200Z,2.00
2019-03-09T15:28:34.744Z,2.60
2019-03-09T15:31:03.259Z,2.47
2019-03-09T15:33:31.872Z,2.83
2019-03-09T15:36:00.691Z,2.22
2019-03-09T15:38:29.164Z,2.10
2019-03-09T15:40:58.199Z,2.67
2019-03-09T15:43:26.780Z,2.75
2019-03-09T15:45:56.074Z,3.17
2019-03-09T15:48:24.591Z,3.27
2019-03-09T15:50:53.903Z,2.85
2019-03-09T15:53:22.387Z,3.67
2019-03-09T15:56:10.990Z,3.40
2019-03-09T15:58:39.735Z,4.22
2019-03-09T16:01:30.643Z,9.38
2019-03-09T16:03:59.560Z,4.65
2019-03-09T16:06:28.674Z,4.12
2019-03-09T16:08:57.659Z,2.27
2019-03-09T16:11:26.551Z,3.35
2019-03-09T16:13:55.283Z,2.30
2019-03-09T16:43:41.436Z,2.55
2019-03-09T16:46:10.287Z,4.45
2019-03-09T16:48:39.811Z,4.17
2019-03-09T16:54:20.460Z,5.67
2019-03-09T16:56:49.259Z,3.67
2019-03-09T16:59:18.644Z,3.80
2019-03-09T17:01:47.787Z,4.42
2019-03-09T17:04:16.630Z,4.12
2019-03-09T17:06:45.257Z,5.12
2019-03-09T17:09:13.967Z,5.65
2019-03-09T17:11:42.599Z,4.12
2019-03-09T17:14:11.299Z,4.30
2019-03-09T17:16:40.143Z,4.25
2019-03-09T17:19:09.200Z,4.78
2019-03-09T17:21:38.583Z,6.17
2019-03-09T17:24:07.451Z,5.80
2019-03-09T17:26:36.552Z,6.50
2019-03-09T17:29:05.500Z,6.90
2019-03-09T17:31:35.367Z,7.28
2019-03-09T17:34:06.383Z,8.00
2019-03-09T17:36:37.928Z,5.80
2019-03-09T17:39:08.635Z,5.75
2019-03-09T17:41:43.334Z,4.72
2019-03-09T17:44:12.030Z,6.03
2019-03-09T17:46:40.826Z,6.15
2019-03-09T17:49:10.101Z,5.37
2019-03-09T17:51:38.783Z,5.85
2019-03-09T17:54:07.655Z,5.85
2019-03-09T17:56:36.559Z,5.53
2019-03-09T17:59:10.471Z,5.30
2019-03-09T18:01:39.288Z,5.17
2019-03-09T18:04:08.278Z,6.05
2019-03-09T18:06:37.015Z,5.60
2019-03-09T18:09:07.319Z,5.08
2019-03-09T18:11:36.303Z,5.05
2019-03-09T18:17:13.023Z,5.62
2019-03-09T18:19:43.653Z,4.00
2019-03-09T18:22:12.802Z,4.60
2019-03-09T18:24:41.478Z,3.95
2019-03-09T18:27:11.451Z,4.75
2019-03-09T18:29:40.363Z,4.33
2019-03-09T18:32:09.078Z,4.70
2019-03-09T18:34:37.991Z,4.12
2019-03-09T18:37:06.758Z,4.67
2019-03-09T18:39:35.715Z,4.40
2019-03-09T18:42:04.981Z,4.80
2019-03-09T18:44:34.010Z,6.83
2019-03-09T18:47:02.850Z,7.37
2019-03-09T18:49:32.523Z,5.85
2019-03-09T18:52:01.390Z,5.22
2019-03-09T18:54:30.304Z,6.22
2019-03-09T18:56:59.038Z,5.35
2019-03-09T18:59:27.703Z,6.40
2019-03-09T19:01:56.382Z,7.42
2019-03-09T19:04:25.024Z,6.95
2019-03-09T19:06:53.814Z,7.50
2019-03-09T19:09:22.698Z,7.33
2019-03-09T19:11:51.481Z,7.47
2019-03-09T19:14:20.453Z,6.20
2019-03-09T19:16:49.366Z,5.65
2019-03-09T19:19:18.173Z,4.72
2019-03-09T19:21:47.258Z,5.15
2019-03-09T19:24:23.599Z,4.75
2019-03-09T19:26:52.505Z,6.00
2019-03-09T19:29:21.693Z,5.97
2019-03-09T19:31:50.618Z,5.75
2019-03-09T19:34:21.549Z,5.42
2019-03-09T19:36:51.846Z,5.05
2019-03-09T19:39:21.173Z,6.87
2019-03-09T19:41:50.841Z,6.90
2019-03-09T19:44:19.673Z,6.78
2019-03-09T19:47:01.229Z,7.50
2019-03-09T19:49:47.841Z,7.90
2019-03-09T19:52:17.878Z,8.07
2019-03-09T20:12:41.361Z,5.25
2019-03-09T20:18:06.749Z,6.00
2019-03-09T20:20:35.653Z,7.70
2019-03-09T20:23:05.197Z,6.28
2019-03-09T20:25:34.196Z,5.08
2019-03-09T20:28:05.370Z,5.90
2019-03-09T20:30:34.340Z,6.35
2019-03-09T20:33:34.092Z,5.97
2019-03-09T20:36:02.620Z,5.58
2019-03-09T20:38:31.359Z,5.95
2019-03-09T20:40:59.927Z,5.53
2019-03-09T20:43:28.823Z,6.42
2019-03-09T20:45:57.711Z,7.58
2019-03-09T20:48:26.471Z,5.87
2019-03-09T20:50:55.343Z,5.30
2019-03-09T20:53:23.979Z,5.10
2019-03-09T20:55:52.667Z,5.40
2019-03-09T20:58:21.315Z,4.40
2019-03-09T21:00:49.999Z,4.67
2019-03-09T21:03:18.775Z,5.17
2019-03-09T21:05:47.572Z,4.72
2019-03-09T21:08:16.429Z,4.65
2019-03-09T21:10:45.148Z,4.80
2019-03-09T21:13:13.971Z,4.83
2019-03-09T21:15:42.630Z,5.00
2019-03-09T21:18:11.559Z,5.25
2019-03-09T21:20:40.257Z,5.30
2019-03-09T21:23:09.083Z,4.83
2019-03-09T21:25:37.891Z,5.22
2019-03-09T21:28:06.842Z,4.53
2019-03-09T21:30:36.011Z,4.55
2019-03-09T21:33:05.526Z,4.72
2019-03-09T21:35:34.401Z,4.67
2019-03-09T21:38:03.367Z,5.35
2019-03-09T21:40:32.278Z,5.60
2019-03-09T21:43:01.167Z,5.87
2019-03-09T21:45:30.047Z,5.75
2019-03-09T21:47:59.182Z,5.67
2019-03-09T21:50:28.364Z,5.95
2019-03-09T21:52:57.290Z,6.50
2019-03-09T21:55:26.282Z,6.22
2019-03-09T21:57:55.230Z,6.50
2019-03-09T22:00:24.177Z,6.95
2019-03-09T22:02:52.982Z,6.92
2019-03-09T22:05:21.954Z,7.17
2019-03-09T22:07:50.954Z,7.50
2019-03-09T22:10:20.209Z,7.72
2019-03-09T22:12:49.117Z,7.37
2019-03-09T22:15:18.521Z,7.17
2019-03-09T22:17:47.414Z,6.62
2019-03-09T22:20:16.300Z,8.10
2019-03-09T22:22:45.206Z,7.15
2019-03-09T22:25:14.220Z,7.15
2019-03-09T22:27:42.978Z,7.17
2019-03-09T22:30:12.338Z,8.73
2019-03-09T22:32:41.442Z,6.83
2019-03-09T22:35:12.259Z,7.57
2019-03-09T22:37:41.095Z,7.47
2019-03-09T22:40:10.543Z,6.60
2019-03-09T22:42:39.442Z,6.47
2019-03-09T22:45:09.374Z,7.65
2019-03-09T22:47:38.302Z,7.50
2019-03-09T22:50:09.183Z,8.88
2019-03-09T22:52:38.175Z,10.75
2019-03-09T22:55:07.802Z,13.98
2019-03-09T22:57:36.675Z,16.32
2019-03-09T23:00:05.932Z,18.12
2019-03-09T23:02:34.806Z,16.85
2019-03-09T23:05:03.742Z,19.52
2019-03-09T23:07:32.722Z,19.80
2019-03-09T23:10:01.618Z,19.48
2019-03-09T23:12:30.458Z,20.77
2019-03-09T23:14:59.230Z,22.05
2019-03-09T23:17:28.082Z,23.38
2019-03-09T23:19:56.938Z,24.55
2019-03-09T23:22:25.874Z,21.15
2019-03-09T23:24:54.731Z,17.80
2019-03-09T23:27:23.543Z,17.85
2019-03-09T23:29:52.346Z,16.05
2019-03-09T23:32:21.358Z,14.03
2019-03-09T23:34:50.303Z,12.18
2019-03-09T23:37:19.326Z,11.73
2019-03-09T23:39:48.166Z,11.08
2019-03-09T23:42:16.995Z,10.08
2019-03-09T23:44:48.821Z,11.12
2019-03-09T23:47:17.640Z,9.50
2019-03-09T23:49:46.458Z,8.40
2019-03-09T23:52:15.279Z,9.23
2019-03-09T23:54:44.174Z,9.40
2019-03-09T23:57:13.261Z,8.63
2019-03-09T23:59:47.265Z,9.17
